Time;durP1;ratioP1;P1;durP2;ratioP2;P2;SDS_P1;SDS_P2;PMS_P1;PMS_P2;Temp;Humidity;BMP_temperature;BMP_pressure;BME280_temperature;BME280_humidity;BME280_pressure;Samples;Min_cycle;Max_cycle;Signal;HPM_P1;HPM_P2
2022/04/01 00:01:22;;;;;;;;;;;;;;;1.07;78.61133;100783.1;;;;-80
2022/04/01 00:06:18;;;;;;;;;;;;;;;1.11;78.34766;100770.7;;;;-81
2022/04/01 00:11:18;;;;;;;;;;;;;;;1.1;78.47363;100776.8;;;;-80
2022/04/01 00:16:19;;;;;;;;;;;;;;;1.07;78.78418;100777.7;;;;-80
2022/04/01 00:21:20;;;;;;;;;;;;;;;1.04;79.24316;100779.1;;;;-81
2022/04/01 00:24:40;;;;;;;3;1.2;;;;;;;;;;;;;-80
2022/04/01 00:26:20;;;;;;;;;;;;;;;1.03;79.23242;100781.6;;;;-78
2022/04/01 00:31:21;;;;;;;;;;;;;;;1.03;79.31738;100782;;;;-79
2022/04/01 00:36:18;;;;;;;;;;;;;;;1.02;79.38086;100786;;;;-79
2022/04/01 00:41:18;;;;;;;;;;;;;;;1.05;79.52441;100790.1;;;;-77
2022/04/01 00:46:18;;;;;;;;;;;;;;;1.01;79.55176;100790.7;;;;-79
2022/04/01 00:51:19;;;;;;;;;;;;;;;1;79.59375;100796;;;;-78
2022/04/01 00:54:41;;;;;;;1.8;0.8;;;;;;;;;;;;;-78
2022/04/01 00:56:18;;;;;;;;;;;;;;;1.01;79.6582;100806.8;;;;-79
2022/04/01 01:01:18;;;;;;;;;;;;;;;1;79.91797;100820.6;;;;-80
2022/04/01 01:06:18;;;;;;;;;;;;;;;1;79.72363;100813.4;;;;-80
2022/04/01 01:11:20;;;;;;;;;;;;;;;1;79.75586;100813.4;;;;-82
2022/04/01 01:16:32;;;;;;;;;;;;;;;0.99;79.76367;100808.2;;;;-81
2022/04/01 01:21:20;;;;;;;;;;;;;;;1.02;79.54297;100813;;;;-79
2022/04/01 01:24:39;;;;;;;3;1.2;;;;;;;;;;;;;-78
2022/04/01 01:26:18;;;;;;;;;;;;;;;1.02;79.46582;100812.8;;;;-81
2022/04/01 01:31:18;;;;;;;;;;;;;;;1.02;79.55176;100815.7;;;;-79
2022/04/01 01:36:21;;;;;;;;;;;;;;;0.99;79.73242;100818.8;;;;-80
2022/04/01 01:41:18;;;;;;;;;;;;;;;1;79.55078;100825.6;;;;-81
2022/04/01 01:46:18;;;;;;;;;;;;;;;0.99;79.79785;100836.5;;;;-80
2022/04/01 01:54:50;;;;;;;2.3;1.1;;;;;;;;;;;;;-78
2022/04/01 01:56:18;;;;;;;;;;;;;;;0.98;79.97852;100838.9;;;;-80
2022/04/01 02:01:21;;;;;;;;;;;;;;;0.99;79.52734;100827.5;;;;-80
2022/04/01 02:06:18;;;;;;;;;;;;;;;0.95;79.92969;100830;;;;-80
2022/04/01 02:11:18;;;;;;;;;;;;;;;0.93;80.19531;100837.1;;;;-79
2022/04/01 02:16:18;;;;;;;;;;;;;;;0.93;80.22754;100854.7;;;;-79
2022/04/01 02:21:24;;;;;;;;;;;;;;;0.92;80.4209;100846.4;;;;-81
2022/04/01 02:24:37;;;;;;;2.5;1.1;;;;;;;;;;;;;-80
2022/04/01 02:26:24;;;;;;;;;;;;;;;0.91;80.43164;100858.2;;;;-81
2022/04/01 02:31:24;;;;;;;;;;;;;;;0.96;79.97656;100865.8;;;;-82
2022/04/01 02:36:19;;;;;;;;;;;;;;;0.98;79.66406;100867.7;;;;-79
2022/04/01 02:41:18;;;;;;;;;;;;;;;0.99;79.4082;100871.6;;;;-79
2022/04/01 02:46:19;;;;;;;;;;;;;;;1;79.09375;100870.9;;;;-80
2022/04/01 02:51:24;;;;;;;;;;;;;;;0.99;79.07129;100875.4;;;;-80
2022/04/01 02:54:42;;;;;;;3.4;1.2;;;;;;;;;;;;;-81
2022/04/01 02:56:18;;;;;;;;;;;;;;;1;78.97656;100885.1;;;;-81
2022/04/01 03:01:21;;;;;;;;;;;;;;;0.98;78.94141;100884.8;;;;-80
2022/04/01 03:06:25;;;;;;;;;;;;;;;0.97;78.73242;100892.2;;;;-80
2022/04/01 03:11:44;;;;;;;;;;;;;;;0.95;79.16113;100901.2;;;;-82
2022/04/01 03:16:18;;;;;;;;;;;;;;;0.96;78.77344;100902.6;;;;-80
2022/04/01 03:21:19;;;;;;;;;;;;;;;0.95;78.90137;100906.4;;;;-79
2022/04/01 03:24:35;;;;;;;1.7;0.8;;;;;;;;;;;;;-79
2022/04/01 03:26:24;;;;;;;;;;;;;;;0.94;78.6084;100903.9;;;;-78
2022/04/01 03:31:24;;;;;;;;;;;;;;;0.97;78.1582;100917.8;;;;-80
2022/04/01 03:36:18;;;;;;;;;;;;;;;1;77.83887;100911.5;;;;-79
2022/04/01 03:41:19;;;;;;;;;;;;;;;1.01;77.48438;100901.3;;;;-81
2022/04/01 03:46:24;;;;;;;;;;;;;;;1.02;77.33496;100916.9;;;;-81
2022/04/01 03:51:21;;;;;;;;;;;;;;;1.03;77.1416;100923.6;;;;-79
2022/04/01 03:54:36;;;;;;;1.4;0.7;;;;;;;;;;;;;-80
2022/04/01 03:56:19;;;;;;;;;;;;;;;1.04;76.78516;100921.5;;;;-80
2022/04/01 04:01:18;;;;;;;;;;;;;;;1.03;77.02246;100925.4;;;;-82
2022/04/01 04:06:18;;;;;;;;;;;;;;;1.02;76.87988;100925.5;;;;-80
2022/04/01 04:11:22;;;;;;;;;;;;;;;1.04;77.00195;100928;;;;-80
2022/04/01 04:16:20;;;;;;;;;;;;;;;1.03;77.05469;100931.7;;;;-80
2022/04/01 04:21:24;;;;;;;;;;;;;;;1.02;77.18262;100946.3;;;;-80
2022/04/01 04:24:37;;;;;;;2.1;0.9;;;;;;;;;;;;;-79
2022/04/01 04:26:24;;;;;;;;;;;;;;;1.03;77.24023;100950.2;;;;-80
2022/04/01 04:31:18;;;;;;;;;;;;;;;1.03;77.02246;100953.4;;;;-79
2022/04/01 04:36:19;;;;;;;;;;;;;;;1.05;76.69141;100957.3;;;;-81
2022/04/01 04:41:18;;;;;;;;;;;;;;;1.05;76.54883;100970.4;;;;-80
2022/04/01 04:46:18;;;;;;;;;;;;;;;1.06;76.56152;100980.8;;;;-81
2022/04/01 04:51:21;;;;;;;;;;;;;;;1.02;76.76074;100985.3;;;;-83
2022/04/01 04:54:36;;;;;;;2.1;0.9;;;;;;;;;;;;;-79
2022/04/01 04:56:19;;;;;;;;;;;;;;;1.04;76.30859;101000.4;;;;-81
2022/04/01 05:01:30;;;;;;;;;;;;;;;1;76.48633;100995.5;;;;-80
2022/04/01 05:06:21;;;;;;;;;;;;;;;1.02;76.19531;101008.2;;;;-81
2022/04/01 05:11:26;;;;;;;;;;;;;;;1.02;76.20605;101020.6;;;;-81
2022/04/01 05:16:25;;;;;;;;;;;;;;;1.02;75.98047;101012.6;;;;-81
2022/04/01 05:21:23;;;;;;;;;;;;;;;1.02;76.22754;101031;;;;-78
2022/04/01 05:24:40;;;;;;;2.1;0.9;;;;;;;;;;;;;-79
2022/04/01 05:26:20;;;;;;;;;;;;;;;1.01;76.22754;101032.5;;;;-80
2022/04/01 05:31:23;;;;;;;;;;;;;;;1;76.70313;101046.2;;;;-80
2022/04/01 05:36:19;;;;;;;;;;;;;;;1;76.44336;101049.5;;;;-79
2022/04/01 05:41:21;;;;;;;;;;;;;;;1;76.24805;101048;;;;-79
2022/04/01 05:46:22;;;;;;;;;;;;;;;0.99;76.29883;101062.5;;;;-80
2022/04/01 05:51:29;;;;;;;;;;;;;;;0.99;76.27734;101071.8;;;;-82
2022/04/01 05:54:34;;;;;;;3.2;0.8;;;;;;;;;;;;;-81
2022/04/01 05:56:19;;;;;;;;;;;;;;;1.04;75.78906;101077.6;;;;-82
2022/04/01 06:05:07;;;;;;;;;;;;;;;1.07;75.51172;101082.9;;;;-78
2022/04/01 06:09:54;;;;;;;;;;;;;;;1.09;75.30859;101086.1;;;;-77
2022/04/01 06:14:56;;;;;;;;;;;;;;;1.11;75.56348;101094.7;;;;-77
2022/04/01 06:19:54;;;;;;;;;;;;;;;1.1;75.44238;101094.9;;;;-77
2022/04/01 06:24:36;;;;;;;1.9;0.8;;;;;;;;;;;;;-79
2022/04/01 06:25:02;;;;;;;;;;;;;;;1.1;75.08496;101104.1;;;;-76
2022/04/01 06:35:04;;;;;;;;;;;;;;;1.17;74.92383;101120.3;;;;-78
2022/04/01 06:39:56;;;;;;;;;;;;;;;1.24;75.17383;101110.9;;;;-77
2022/04/01 06:44:52;;;;;;;;;;;;;;;1.35;74.97559;101126.8;;;;-77
2022/04/01 06:49:50;;;;;;;;;;;;;;;1.43;75.1543;101124.4;;;;-78
2022/04/01 06:54:31;;;;;;;1.4;0.6;;;;;;;;;;;;;-77
2022/04/01 06:54:55;;;;;;;;;;;;;;;1.51;74.92871;101142.1;;;;-77
2022/04/01 06:59:56;;;;;;;;;;;;;;;1.57;75.05762;101140.4;;;;-77
2022/04/01 07:04:54;;;;;;;;;;;;;;;1.64;75.07031;101143.8;;;;-78
2022/04/01 07:09:54;;;;;;;;;;;;;;;1.67;74.69531;101153.4;;;;-79
2022/04/01 07:14:51;;;;;;;;;;;;;;;1.7;74.91895;101158.6;;;;-77
2022/04/01 07:19:50;;;;;;;;;;;;;;;1.71;74.64844;101162.2;;;;-79
2022/04/01 07:24:34;;;;;;;1.8;0.7;;;;;;;;;;;;;-80
2022/04/01 07:24:50;;;;;;;;;;;;;;;1.73;75.22754;101162.9;;;;-77
2022/04/01 07:30:01;;;;;;;;;;;;;;;1.78;74.73633;101168.3;;;;-78
2022/04/01 07:34:52;;;;;;;;;;;;;;;1.84;74.50781;101181.4;;;;-77
2022/04/01 07:40:02;;;;;;;;;;;;;;;1.88;74.67773;101178.4;;;;-78
2022/04/01 07:44:52;;;;;;;;;;;;;;;1.95;74.61426;101179;;;;-76
2022/04/01 07:49:59;;;;;;;;;;;;;;;1.95;74.39648;101193;;;;-78
2022/04/01 07:54:42;;;;;;;1.5;0.7;;;;;;;;;;;;;-79
2022/04/01 07:54:53;;;;;;;;;;;;;;;1.92;74.24023;101199.7;;;;-79
2022/04/01 08:00:04;;;;;;;;;;;;;;;1.98;73.84863;101198.9;;;;-80
2022/04/01 08:04:58;;;;;;;;;;;;;;;2.03;73.55273;101211.9;;;;-78
2022/04/01 08:10:06;;;;;;;;;;;;;;;2.15;73.41016;101211.2;;;;-79
2022/04/01 08:14:52;;;;;;;;;;;;;;;2.22;73.22656;101213.5;;;;-79
2022/04/01 08:19:50;;;;;;;;;;;;;;;2.42;72.73828;101226.5;;;;-78
2022/04/01 08:24:30;;;;;;;1.7;0.7;;;;;;;;;;;;;-77
2022/04/01 08:25:03;;;;;;;;;;;;;;;2.56;72.42383;101227.7;;;;-78
2022/04/01 08:30:09;;;;;;;;;;;;;;;;72.89648;101227.3;;;;
2022/04/01 08:34:50;;;;;;;;;;;;;;;2.87;71.67188;101244.4;;;;-77
2022/04/01 08:39:54;;;;;;;;;;;;;;;3.04;71.6123;101248.3;;;;-76
2022/04/01 08:45:06;;;;;;;;;;;;;;;3.15;71.4668;101253.6;;;;-79
2022/04/01 08:49:52;;;;;;;;;;;;;;;3.24;71.30762;101248.7;;;;-77
2022/04/01 08:54:30;;;;;;;2;0.7;;;;;;;;;;;;;-78
2022/04/01 08:54:50;;;;;;;;;;;;;;;3.35;72.56836;101271.7;;;;-77
2022/04/01 08:59:57;;;;;;;;;;;;;;;3.4;71.83594;101275.3;;;;-78
2022/04/01 09:05:05;;;;;;;;;;;;;;;3.55;72.58105;101292.5;;;;-78
2022/04/01 09:10:08;;;;;;;;;;;;;;;3.65;72.70703;101284.1;;;;-77
2022/04/01 09:14:55;;;;;;;;;;;;;;;3.87;71.69434;101296.6;;;;-77
2022/04/01 09:20:04;;;;;;;;;;;;;;;4;71.10645;101300.4;;;;-79
2022/04/01 09:24:29;;;;;;;2.5;0.9;;;;;;;;;;;;;-78
2022/04/01 09:25:03;;;;;;;;;;;;;;;4.17;73.46094;101309;;;;-78
2022/04/01 09:29:53;;;;;;;;;;;;;;;4.29;71.10742;101321;;;;-79
2022/04/01 09:34:53;;;;;;;;;;;;;;;4.49;72.53125;101315.7;;;;-79
2022/04/01 09:39:58;;;;;;;;;;;;;;;4.56;72.08301;101323.2;;;;-77
2022/04/01 09:44:50;;;;;;;;;;;;;;;4.49;70.38867;101325.7;;;;-78
2022/04/01 09:49:52;;;;;;;;;;;;;;;4.47;71.53125;101331.5;;;;-78
2022/04/01 09:54:29;;;;;;;3;1;;;;;;;;;;;;;-78
2022/04/01 09:54:54;;;;;;;;;;;;;;;4.47;70.1748;101335.7;;;;-77
2022/04/01 09:59:51;;;;;;;;;;;;;;;4.6;71.29199;101341.9;;;;-77
2022/04/01 10:04:54;;;;;;;;;;;;;;;4.74;70.3418;101346.2;;;;-78
2022/04/01 10:09:51;;;;;;;;;;;;;;;4.85;71.22461;101346.6;;;;-79
2022/04/01 10:14:54;;;;;;;;;;;;;;;5.03;71.07813;101354.6;;;;-78
2022/04/01 10:19:53;;;;;;;;;;;;;;;5.09;69.12695;101349;;;;-77
2022/04/01 10:24:38;;;;;;;2.3;1.2;;;;;;;;;;;;;-77
2022/04/01 10:24:53;;;;;;;;;;;;;;;5.42;70.36328;101354.2;;;;-76
2022/04/01 10:29:51;;;;;;;;;;;;;;;5.67;69.17578;101368.6;;;;-79
2022/04/01 10:34:56;;;;;;;;;;;;;;;5.78;69.54395;101361.6;;;;-84
2022/04/01 10:40:16;;;;;;;;;;;;;;;5.62;68.23438;101384;;;;-79
2022/04/01 10:44:54;;;;;;;;;;;;;;;5.55;68.80469;101376.6;;;;-79
2022/04/01 10:54:52;;;;;;;3.4;1;;;;;;;;;;;;;-78
2022/04/01 10:55:18;;;;;;;;;;;;;;;5.88;69.52637;101374.9;;;;-77
2022/04/01 10:59:56;;;;;;;;;;;;;;;6.06;68.69922;101373.5;;;;-78
2022/04/01 11:05:00;;;;;;;;;;;;;;;6.18;67.62012;101376.3;;;;-80
2022/04/01 11:09:56;;;;;;;;;;;;;;;6.3;67.17578;101373.4;;;;-78
2022/04/01 11:15:07;;;;;;;;;;;;;;;6.35;65.73145;101366;;;;-79
2022/04/01 11:20:05;;;;;;;;;;;;;;;6.38;65.04395;101370.3;;;;-80
2022/04/01 11:24:38;;;;;;;3.1;1.1;;;;;;;;;;;;;-79
2022/04/01 11:24:53;;;;;;;;;;;;;;;6.4;64.20996;101375.6;;;;-77
2022/04/01 11:30:00;;;;;;;;;;;;;;;6.29;64.28125;101392.5;;;;-78
2022/04/01 11:35:04;;;;;;;;;;;;;;;6;63.70996;101396.8;;;;-79
2022/04/01 11:39:53;;;;;;;;;;;;;;;5.91;64.44434;101391.8;;;;-79
2022/04/01 11:45:00;;;;;;;;;;;;;;;5.96;63.73633;101407.1;;;;-80
2022/04/01 11:50:02;;;;;;;;;;;;;;;5.95;64.17676;101399.3;;;;-78
2022/04/01 11:54:34;;;;;;;2.7;1.2;;;;;;;;;;;;;-80
2022/04/01 11:54:51;;;;;;;;;;;;;;;6.05;64.8291;101395.6;;;;-79
2022/04/01 11:59:50;;;;;;;;;;;;;;;6.32;64.24121;101399.8;;;;-78
2022/04/01 12:04:53;;;;;;;;;;;;;;;6.5;63.86133;101413.2;;;;-78
2022/04/01 12:09:50;;;;;;;;;;;;;;;6.66;63.52148;101397.3;;;;-79
2022/04/01 12:14:52;;;;;;;;;;;;;;;6.77;63.15039;101414.8;;;;-79
2022/04/01 12:20:01;;;;;;;;;;;;;;;6.85;63.11816;101411.5;;;;-79
2022/04/01 12:24:35;;;;;;;2.8;1.1;;;;;;;;;;;;;-80
2022/04/01 12:24:53;;;;;;;;;;;;;;;6.94;62.94531;101408.7;;;;-79
2022/04/01 12:30:06;;;;;;;;;;;;;;;7.05;63.00391;101413.9;;;;-78
2022/04/01 12:35:08;;;;;;;;;;;;;;;7.16;62.18262;101411;;;;-78
2022/04/01 12:40:10;;;;;;;;;;;;;;;7.31;62.98633;101416.7;;;;-79
2022/04/01 12:44:52;;;;;;;;;;;;;;;7.45;62.01367;101407.7;;;;-80
2022/04/01 12:50:10;;;;;;;;;;;;;;;7.52;62.09961;101408.4;;;;-79
2022/04/01 12:54:48;;;;;;;2.8;1.1;;;;;;;;;;;;;-81
2022/04/01 12:55:27;;;;;;;;;;;;;;;7.71;63.2666;101406.7;;;;-81
2022/04/01 13:00:21;;;;;;;;;;;;;;;;;;;;;
2022/04/01 13:14:40;;;;;;;;;;;;;;;8.46;60.66309;101412.6;;;;-79
2022/04/01 13:19:37;;;;;;;;;;;;;;;8.49;60.66699;101407.1;;;;-81
2022/04/01 13:24:40;;;;;;;2.5;0.9;;;;;;;;;;;;;-79
2022/04/01 13:25:11;;;;;;;;;;;;;;;8.61;59.19824;101404.3;;;;-82
2022/04/01 13:34:45;;;;;;;;;;;;;;;8.74;59.4834;101395.9;;;;-79
2022/04/01 13:39:56;;;;;;;;;;;;;;;8.74;59.78223;101411.8;;;;-79
2022/04/01 13:44:38;;;;;;;;;;;;;;;8.73;58.45117;101420.1;;;;-78
2022/04/01 13:54:44;;;;;;;3.3;1;;;;;;;;;;;;;-79
2022/04/01 13:54:59;;;;;;;;;;;;;;;8.73;59.07129;101413.8;;;;-79
2022/04/01 13:59:39;;;;;;;;;;;;;;;8.75;57.6543;101416.8;;;;-79
2022/04/01 14:04:47;;;;;;;;;;;;;;;8.71;57.89355;101422.7;;;;-81
2022/04/01 14:08:35;;;;;;;;;;;;;;;8.75;58.98535;101439;;;;-82
2022/04/01 14:13:36;;;;;;;;;;;;;;;8.86;58.93359;101421.9;;;;-82
2022/04/01 14:18:25;;;;;;;;;;;;;;;9.03;58.62402;101431.1;;;;-82
2022/04/01 14:23:27;;;;;;;;;;;;;;;9;58.40918;101430.3;;;;-83
2022/04/01 14:24:47;;;;;;;2.6;1;;;;;;;;;;;;;-83
2022/04/01 14:31:12;;;;;;;;;;;;;;;9.16;58.81934;101425.5;;;;-79
2022/04/01 14:36:15;;;;;;;;;;;;;;;9.38;57.63965;101439.1;;;;-78
2022/04/01 14:41:06;;;;;;;;;;;;;;;9.54;57.58105;101429.9;;;;-80
2022/04/01 14:46:11;;;;;;;;;;;;;;;9.62;57.3584;101424.5;;;;-81
2022/04/01 14:51:13;;;;;;;;;;;;;;;9.57;55.62793;101424.3;;;;-80
2022/04/01 14:54:36;;;;;;;3.3;1;;;;;;;;;;;;;-81
2022/04/01 14:56:18;;;;;;;;;;;;;;;9.33;55.62012;101430.1;;;;-78
2022/04/01 15:01:06;;;;;;;;;;;;;;;9.16;56.56543;101426.9;;;;-79
2022/04/01 15:06:09;;;;;;;;;;;;;;;9.23;56.4082;101443.2;;;;-79
2022/04/01 15:11:07;;;;;;;;;;;;;;;9.19;55.41309;101439.6;;;;-79
2022/04/01 15:16:14;;;;;;;;;;;;;;;9.14;54.18457;101444.4;;;;-80
2022/04/01 15:21:09;;;;;;;;;;;;;;;9.13;54.81738;101453.6;;;;-80
2022/04/01 15:24:39;;;;;;;2.4;1;;;;;;;;;;;;;-81
2022/04/01 15:26:19;;;;;;;;;;;;;;;9.19;54.60254;101451.3;;;;-80
2022/04/01 15:31:07;;;;;;;;;;;;;;;9.16;52.29785;101455;;;;-82
2022/04/01 15:36:18;;;;;;;;;;;;;;;9.02;52.98145;101458.1;;;;-79
2022/04/01 15:41:08;;;;;;;;;;;;;;;8.95;53.9502;101460.9;;;;-82
2022/04/01 15:46:09;;;;;;;;;;;;;;;8.88;54.4082;101459.1;;;;-82
2022/04/01 15:51:06;;;;;;;;;;;;;;;8.87;53.85156;101460.3;;;;-81
2022/04/01 15:54:36;;;;;;;3.3;0.9;;;;;;;;;;;;;-82
2022/04/01 15:56:06;;;;;;;;;;;;;;;8.84;54.05859;101471.8;;;;-82
2022/04/01 16:01:06;;;;;;;;;;;;;;;8.77;53.94043;101474.3;;;;-81
2022/04/01 16:06:09;;;;;;;;;;;;;;;8.67;53.97168;101484.4;;;;-82
2022/04/01 16:11:08;;;;;;;;;;;;;;;8.59;53.73828;101484.4;;;;-80
2022/04/01 16:16:07;;;;;;;;;;;;;;;8.57;52.95898;101495.8;;;;-82
2022/04/01 16:21:06;;;;;;;;;;;;;;;8.45;51.60156;101505.4;;;;-81
2022/04/01 16:24:35;;;;;;;2.4;0.9;;;;;;;;;;;;;-81
2022/04/01 16:26:08;;;;;;;;;;;;;;;8.28;51.31445;101508.8;;;;-80
2022/04/01 16:31:06;;;;;;;;;;;;;;;8.1;51.78223;101508.3;;;;-82
2022/04/01 16:36:13;;;;;;;;;;;;;;;7.92;51.57031;101513.4;;;;-81
2022/04/01 16:41:07;;;;;;;;;;;;;;;7.74;52.33691;101514.1;;;;-82
2022/04/01 16:46:06;;;;;;;;;;;;;;;7.65;52.79199;101525.6;;;;-81
2022/04/01 16:51:07;;;;;;;;;;;;;;;7.5;53.60449;101532.1;;;;-81
2022/04/01 16:54:36;;;;;;;2.6;0.9;;;;;;;;;;;;;-80
2022/04/01 16:56:07;;;;;;;;;;;;;;;7.39;52.79395;101542.5;;;;-82
2022/04/01 17:01:07;;;;;;;;;;;;;;;7.22;53.10449;101545.7;;;;-81
2022/04/01 17:16:19;;;;;;;;;;;;;;;6.78;52.50879;101562.1;;;;-81
2022/04/01 17:21:06;;;;;;;;;;;;;;;6.63;52.68848;101563.1;;;;-80
2022/04/01 17:24:39;;;;;;;3.3;1.4;;;;;;;;;;;;;-83
2022/04/01 17:26:10;;;;;;;;;;;;;;;6.46;53.65234;101572.4;;;;-83
2022/04/01 17:31:20;;;;;;;;;;;;;;;6.35;54.15723;101577.6;;;;-79
2022/04/01 17:36:08;;;;;;;;;;;;;;;6.23;53.54688;101579.3;;;;-79
2022/04/01 17:48:06;;;;;;;;;;;;;;;5.86;53.59863;101585.6;;;;-84
2022/04/01 17:53:10;;;;;;;;;;;;;;;5.69;54.90234;101588;;;;-84
2022/04/01 17:54:40;;;;;;;2.6;1.3;;;;;;;;;;;;;-86
2022/04/01 17:58:14;;;;;;;;;;;;;;;5.54;54.83887;101596.5;;;;-82
2022/04/01 18:03:10;;;;;;;;;;;;;;;5.39;55.17188;101600.8;;;;-84
2022/04/01 18:08:06;;;;;;;;;;;;;;;5.23;55.05176;101604.2;;;;-83
2022/04/01 18:13:09;;;;;;;;;;;;;;;5.07;54.85547;101613.6;;;;-84
2022/04/01 18:18:04;;;;;;;;;;;;;;;4.87;54.84082;101613.6;;;;-82
2022/04/01 18:23:01;;;;;;;;;;;;;;;4.72;55.47168;101628.5;;;;-82
2022/04/01 18:28:07;;;;;;;;;;;;;;;4.56;55.43848;101637.1;;;;-85
2022/04/01 18:33:04;;;;;;;;;;;;;;;4.42;55.79395;101651.4;;;;-82
2022/04/01 18:38:02;;;;;;;;;;;;;;;4.3;55.99805;101661.7;;;;-81
2022/04/01 18:43:13;;;;;;;;;;;;;;;4.18;56.24707;101679.6;;;;-82
2022/04/01 18:48:02;;;;;;;;;;;;;;;4.06;56.49316;101685.5;;;;-83
2022/04/01 18:53:01;;;;;;;;;;;;;;;3.96;56.75488;101695;;;;-82
2022/04/01 18:54:44;;;;;;;3.6;1.1;;;;;;;;;;;;;-82
2022/04/01 18:58:01;;;;;;;;;;;;;;;3.86;57.07031;101704.8;;;;-83
2022/04/01 19:03:07;;;;;;;;;;;;;;;3.77;57.41992;101701.3;;;;-82
2022/04/01 19:08:25;;;;;;;;;;;;;;;3.69;57.71875;101707.3;;;;-84
2022/04/01 19:13:13;;;;;;;;;;;;;;;3.61;57.85938;101714.9;;;;-83
2022/04/01 19:18:06;;;;;;;;;;;;;;;3.51;58.10938;101705;;;;-83
2022/04/01 19:23:07;;;;;;;;;;;;;;;3.45;58.30957;101710.2;;;;-82
2022/04/01 19:24:48;;;;;;;2.7;1.2;;;;;;;;;;;;;-81
2022/04/01 19:28:01;;;;;;;;;;;;;;;3.38;58.60645;101708.7;;;;-82
2022/04/01 19:33:01;;;;;;;;;;;;;;;3.32;58.66504;101720.3;;;;-82
2022/04/01 19:38:04;;;;;;;;;;;;;;;3.24;58.78516;101729;;;;-83
2022/04/01 19:43:06;;;;;;;;;;;;;;;3.16;58.94727;101727.3;;;;-82
2022/04/01 19:48:01;;;;;;;;;;;;;;;3.1;59.03906;101731.6;;;;-83
2022/04/01 19:53:02;;;;;;;;;;;;;;;3.05;59.15234;101736.5;;;;-82
2022/04/01 19:54:37;;;;;;;3.2;1.3;;;;;;;;;;;;;-83
2022/04/01 19:58:03;;;;;;;;;;;;;;;3.01;59.19043;101740.4;;;;-83
2022/04/01 20:03:03;;;;;;;;;;;;;;;2.96;59.3916;101744.7;;;;-83
2022/04/01 20:08:03;;;;;;;;;;;;;;;2.93;59.45215;101742.9;;;;-84
2022/04/01 20:13:02;;;;;;;;;;;;;;;2.88;59.54492;101745.5;;;;-83
2022/04/01 20:18:02;;;;;;;;;;;;;;;2.84;59.68164;101746.1;;;;-83
2022/04/01 20:23:01;;;;;;;;;;;;;;;2.79;59.81641;101751.8;;;;-82
2022/04/01 20:24:37;;;;;;;2.9;0.9;;;;;;;;;;;;;-82
2022/04/01 20:28:02;;;;;;;;;;;;;;;2.73;59.85254;101759.2;;;;-83
2022/04/01 20:33:01;;;;;;;;;;;;;;;2.67;60.03027;101759.5;;;;-83
2022/04/01 20:38:01;;;;;;;;;;;;;;;2.61;60.03125;101763.4;;;;-82
2022/04/01 20:43:10;;;;;;;;;;;;;;;2.54;60.14258;101765.4;;;;-82
2022/04/01 20:48:03;;;;;;;;;;;;;;;2.49;60.24414;101764.7;;;;-82
2022/04/01 20:53:06;;;;;;;;;;;;;;;2.44;60.33594;101772.9;;;;-83
2022/04/01 20:54:37;;;;;;;2.3;0.8;;;;;;;;;;;;;-83
2022/04/01 20:58:06;;;;;;;;;;;;;;;2.39;60.32813;101771.3;;;;-83
2022/04/01 21:03:02;;;;;;;;;;;;;;;2.34;60.40918;101768.7;;;;-83
2022/04/01 21:08:04;;;;;;;;;;;;;;;2.3;60.49023;101767.7;;;;-82
2022/04/01 21:13:01;;;;;;;;;;;;;;;2.25;60.61426;101766.8;;;;-82
2022/04/01 21:18:01;;;;;;;;;;;;;;;2.19;60.60547;101768.5;;;;-83
2022/04/01 21:23:06;;;;;;;;;;;;;;;2.15;60.69824;101770.5;;;;-84
2022/04/01 21:24:38;;;;;;;2.6;0.9;;;;;;;;;;;;;-81
2022/04/01 21:28:10;;;;;;;;;;;;;;;2.09;60.80957;101775.1;;;;-84
2022/04/01 21:33:08;;;;;;;;;;;;;;;2.04;60.8252;101774;;;;-83
2022/04/01 21:38:03;;;;;;;;;;;;;;;2.04;60.87988;101773.4;;;;-82
2022/04/01 21:43:19;;;;;;;;;;;;;;;2.04;60.95605;101772.6;;;;-82
2022/04/01 21:48:16;;;;;;;;;;;;;;;2.06;61.11133;101771.2;;;;-83
2022/04/01 21:53:16;;;;;;;;;;;;;;;2.11;61.20508;101772.2;;;;-84
2022/04/01 21:54:43;;;;;;;2.5;1.2;;;;;;;;;;;;;-83
2022/04/01 21:58:13;;;;;;;;;;;;;;;2.14;61.15527;101775.1;;;;-84
2022/04/01 22:03:05;;;;;;;;;;;;;;;2.18;61.25977;101775.2;;;;-83
2022/04/01 22:08:03;;;;;;;;;;;;;;;2.22;61.18945;101775.3;;;;-82
2022/04/01 22:13:02;;;;;;;;;;;;;;;2.24;61.21191;101773.3;;;;-83
2022/04/01 22:18:04;;;;;;;;;;;;;;;2.28;61.16406;101778.8;;;;-83
2022/04/01 22:23:12;;;;;;;;;;;;;;;2.31;61.17871;101782.4;;;;-83
2022/04/01 22:24:37;;;;;;;3.1;1.1;;;;;;;;;;;;;-83
2022/04/01 22:28:10;;;;;;;;;;;;;;;2.33;61.18262;101789.9;;;;-83
2022/04/01 22:33:01;;;;;;;;;;;;;;;2.37;62.01758;101792.2;;;;-86
2022/04/01 22:38:01;;;;;;;;;;;;;;;2.41;62.16602;101786.9;;;;-83
2022/04/01 22:43:03;;;;;;;;;;;;;;;2.45;62.47754;101783.3;;;;-83
2022/04/01 22:48:02;;;;;;;;;;;;;;;2.48;62.54785;101788.3;;;;-84
2022/04/01 22:53:08;;;;;;;;;;;;;;;2.5;62.57129;101791.6;;;;-82
2022/04/01 22:54:37;;;;;;;3.6;0.8;;;;;;;;;;;;;-83
2022/04/01 22:58:04;;;;;;;;;;;;;;;2.52;62.64063;101785.4;;;;-83
2022/04/01 23:03:01;;;;;;;;;;;;;;;2.55;62.55566;101783.9;;;;-84
2022/04/01 23:08:03;;;;;;;;;;;;;;;2.55;62.53516;101789.4;;;;-85
2022/04/01 23:13:02;;;;;;;;;;;;;;;2.55;62.5459;101791.1;;;;-82
2022/04/01 23:18:13;;;;;;;;;;;;;;;2.56;62.48242;101801.3;;;;-83
2022/04/01 23:23:02;;;;;;;;;;;;;;;2.57;62.68164;101804.1;;;;-84
2022/04/01 23:24:39;;;;;;;2.7;1;;;;;;;;;;;;;-84
2022/04/01 23:28:03;;;;;;;;;;;;;;;2.59;63.04297;101803.4;;;;-83
2022/04/01 23:33:02;;;;;;;;;;;;;;;2.63;63.00586;101805.5;;;;-84
2022/04/01 23:38:02;;;;;;;;;;;;;;;2.64;63.03809;101808.7;;;;-83
2022/04/01 23:43:00;;;;;;;;;;;;;;;2.65;63.11816;101806.4;;;;-83
2022/04/01 23:48:01;;;;;;;;;;;;;;;2.65;63.10645;101803.6;;;;-82
2022/04/01 23:53:02;;;;;;;;;;;;;;;2.66;62.90039;101804.4;;;;-83
2022/04/01 23:54:36;;;;;;;6.2;0.9;;;;;;;;;;;;;-85
2022/04/01 23:58:04;;;;;;;;;;;;;;;2.68;63.00195;101809.6;;;;-83
